createdAt,value
2023-04-20T00:02:08.807Z,39.70
2023-04-20T00:04:36.398Z,39.99
2023-04-20T00:07:02.853Z,39.74
2023-04-20T00:09:29.222Z,40.06
2023-04-20T00:11:55.549Z,40.25
2023-04-20T00:14:21.895Z,40.12
2023-04-20T00:16:49.011Z,39.95
2023-04-20T00:19:15.525Z,39.76
2023-04-20T00:21:41.973Z,40.15
2023-04-20T00:24:08.465Z,39.59
2023-04-20T00:26:34.862Z,40.04
2023-04-20T00:29:01.175Z,40.04
2023-04-20T00:31:27.625Z,39.97
2023-04-20T00:33:54.055Z,40.22
2023-04-20T00:36:20.606Z,39.70
2023-04-20T00:38:46.954Z,39.90
2023-04-20T00:41:13.684Z,40.13
2023-04-20T00:43:52.731Z,40.48
2023-04-20T00:46:20.774Z,40.34
2023-04-20T00:48:49.791Z,40.35
2023-04-20T00:51:16.242Z,40.60
2023-04-20T00:53:42.769Z,40.57
2023-04-20T00:56:09.274Z,40.83
2023-04-20T00:58:35.897Z,40.23
2023-04-20T01:01:02.247Z,41.32
2023-04-20T01:03:28.689Z,41.49
2023-04-20T01:05:55.249Z,41.38
2023-04-20T01:08:26.113Z,41.32
2023-04-20T01:10:52.593Z,41.05
2023-04-20T01:13:18.963Z,40.73
2023-04-20T01:15:45.346Z,42.60
2023-04-20T01:18:11.724Z,40.86
2023-04-20T01:20:38.136Z,41.25
2023-04-20T01:23:04.526Z,41.29
2023-04-20T01:25:31.181Z,40.76
2023-04-20T01:27:57.493Z,40.60
2023-04-20T01:30:24.128Z,41.21
2023-04-20T01:32:50.813Z,40.84
2023-04-20T01:35:17.384Z,41.05
2023-04-20T01:37:43.769Z,40.83
2023-04-20T01:40:12.059Z,41.56
2023-04-20T01:42:38.567Z,41.02
2023-04-20T01:45:08.041Z,41.38
2023-04-20T01:47:35.372Z,40.86
2023-04-20T01:50:01.772Z,40.68
2023-04-20T01:52:28.126Z,40.89
2023-04-20T01:54:54.469Z,41.84
2023-04-20T01:57:20.827Z,41.23
2023-04-20T01:59:47.146Z,40.86
2023-04-20T02:02:13.570Z,40.81
2023-04-20T02:04:40.198Z,39.74
2023-04-20T02:07:06.559Z,39.98
2023-04-20T02:09:32.960Z,40.42
2023-04-20T02:11:59.292Z,40.41
2023-04-20T02:14:25.691Z,40.67
2023-04-20T02:16:53.372Z,40.42
2023-04-20T02:19:19.894Z,39.92
2023-04-20T02:21:46.285Z,39.77
2023-04-20T02:24:12.640Z,39.69
2023-04-20T02:26:38.961Z,40.03
2023-04-20T02:29:05.336Z,39.92
2023-04-20T02:31:31.789Z,40.12
2023-04-20T02:33:58.164Z,39.71
2023-04-20T02:36:24.486Z,40.08
2023-04-20T02:38:50.842Z,40.28
2023-04-20T02:41:17.182Z,40.90
2023-04-20T02:43:43.551Z,40.91
2023-04-20T02:46:09.927Z,40.98
2023-04-20T02:48:36.279Z,40.29
2023-04-20T02:51:02.673Z,40.34
2023-04-20T02:53:29.013Z,41.37
2023-04-20T02:55:55.380Z,41.84
2023-04-20T02:58:21.696Z,40.97
2023-04-20T03:00:48.044Z,40.81
2023-04-20T03:03:14.892Z,41.00
2023-04-20T03:05:41.637Z,40.23
2023-04-20T03:08:08.174Z,40.54
2023-04-20T03:10:34.637Z,40.27
2023-04-20T03:13:00.961Z,40.91
2023-04-20T03:15:27.282Z,41.49
2023-04-20T03:17:53.744Z,41.23
2023-04-20T03:20:20.588Z,41.28
2023-04-20T03:22:47.234Z,41.60
2023-04-20T03:25:13.666Z,41.20
2023-04-20T03:27:40.053Z,41.45
2023-04-20T03:30:07.104Z,41.61
2023-04-20T03:32:33.490Z,41.67
2023-04-20T03:34:59.879Z,41.69
2023-04-20T03:37:26.291Z,42.43
2023-04-20T03:39:52.632Z,42.02
2023-04-20T03:42:19.438Z,42.36
2023-04-20T03:44:45.782Z,42.14
2023-04-20T03:47:12.132Z,43.03
2023-04-20T03:49:38.579Z,43.01
2023-04-20T03:52:05.379Z,43.53
2023-04-20T03:54:31.719Z,43.92
2023-04-20T03:56:58.432Z,43.19
2023-04-20T03:59:24.801Z,43.90
2023-04-20T04:01:51.882Z,43.94
2023-04-20T04:04:18.903Z,45.06
2023-04-20T04:06:45.485Z,44.91
2023-04-20T04:09:11.857Z,45.84
2023-04-20T04:11:38.175Z,45.79
2023-04-20T04:14:05.173Z,45.88
2023-04-20T04:16:32.198Z,45.89
2023-04-20T04:18:58.518Z,45.69
2023-04-20T04:21:25.497Z,46.04
2023-04-20T04:23:51.850Z,46.35
2023-04-20T04:26:18.225Z,46.66
2023-04-20T04:28:45.845Z,46.28
2023-04-20T04:31:12.426Z,46.65
2023-04-20T04:33:38.799Z,47.15
2023-04-20T04:36:06.135Z,46.73
2023-04-20T04:38:33.335Z,46.26
2023-04-20T04:41:00.535Z,46.40
2023-04-20T04:43:27.454Z,46.70
2023-04-20T04:45:55.402Z,46.75
2023-04-20T04:48:21.809Z,47.41
2023-04-20T04:50:48.196Z,47.78
2023-04-20T04:53:14.653Z,47.87
2023-04-20T04:55:41.065Z,47.88
2023-04-20T04:58:07.406Z,47.77
2023-04-20T05:00:34.174Z,47.32
2023-04-20T05:03:00.652Z,48.02
2023-04-20T05:05:27.176Z,47.77
2023-04-20T05:07:53.528Z,47.78
2023-04-20T05:10:20.145Z,47.86
2023-04-20T05:12:47.336Z,47.63
2023-04-20T05:15:13.730Z,48.20
2023-04-20T05:17:40.450Z,47.94
2023-04-20T05:20:08.651Z,48.16
2023-04-20T05:22:35.091Z,48.18
2023-04-20T05:25:01.609Z,48.38
2023-04-20T05:27:28.040Z,48.09
2023-04-20T05:29:54.462Z,48.21
2023-04-20T05:32:20.864Z,48.29
2023-04-20T05:34:53.189Z,48.35
2023-04-20T05:37:19.629Z,47.99
2023-04-20T05:39:46.552Z,47.96
2023-04-20T05:42:13.018Z,48.69
2023-04-20T05:44:40.981Z,47.92
2023-04-20T05:47:08.604Z,48.30
2023-04-20T05:49:36.828Z,48.58
2023-04-20T05:52:03.575Z,48.69
2023-04-20T05:54:29.961Z,48.67
2023-04-20T05:56:58.605Z,49.19
2023-04-20T05:59:26.647Z,49.18
2023-04-20T06:01:53.031Z,49.45
2023-04-20T06:04:19.663Z,49.87
2023-04-20T06:06:46.247Z,49.99
2023-04-20T06:09:12.603Z,49.45
2023-04-20T06:11:38.957Z,50.22
2023-04-20T06:14:06.785Z,49.77
2023-04-20T06:16:34.171Z,49.72
2023-04-20T06:19:00.766Z,49.75
2023-04-20T06:21:27.314Z,49.79
2023-04-20T06:23:53.712Z,50.98
2023-04-20T06:26:21.250Z,51.28
2023-04-20T06:28:48.726Z,51.35
2023-04-20T06:31:17.185Z,51.55
2023-04-20T06:33:43.575Z,51.90
2023-04-20T06:36:10.043Z,51.31
2023-04-20T06:38:36.685Z,51.28
2023-04-20T06:41:03.158Z,51.22
2023-04-20T06:43:30.982Z,51.58
2023-04-20T06:45:57.437Z,53.44
2023-04-20T06:48:32.253Z,51.92
2023-04-20T06:50:59.359Z,53.67
2023-04-20T06:53:26.170Z,52.24
2023-04-20T06:55:55.356Z,51.83
2023-04-20T06:58:21.731Z,51.44
2023-04-20T07:00:48.164Z,52.40
2023-04-20T07:03:14.597Z,51.90
2023-04-20T07:05:41.411Z,52.74
2023-04-20T07:08:09.359Z,53.13
2023-04-20T07:10:35.834Z,53.61
2023-04-20T07:13:02.172Z,53.90
2023-04-20T07:15:28.484Z,53.83
2023-04-20T07:17:54.925Z,53.60
2023-04-20T07:20:21.409Z,54.29
2023-04-20T07:22:47.969Z,54.18
2023-04-20T07:25:14.291Z,54.32
2023-04-20T07:27:41.522Z,54.70
2023-04-20T07:30:09.131Z,54.65
2023-04-20T07:32:36.375Z,54.40
2023-04-20T07:35:03.630Z,54.57
2023-04-20T07:37:31.682Z,54.16
2023-04-20T07:39:58.244Z,53.49
2023-04-20T07:42:24.777Z,53.31
2023-04-20T07:44:51.277Z,53.35
2023-04-20T07:47:17.739Z,53.01
2023-04-20T07:49:44.874Z,53.85
2023-04-20T07:52:16.927Z,53.99
2023-04-20T07:54:46.471Z,54.48
2023-04-20T07:57:13.319Z,52.89
2023-04-20T07:59:40.542Z,54.60
2023-04-20T08:02:07.847Z,53.92
2023-04-20T08:04:38.253Z,53.62
2023-04-20T08:07:04.863Z,53.48
2023-04-20T08:09:31.277Z,53.53
2023-04-20T08:11:57.752Z,53.13
2023-04-20T08:14:24.261Z,54.27
2023-04-20T08:16:50.798Z,54.09
2023-04-20T08:19:17.201Z,54.14
2023-04-20T08:21:43.650Z,53.75
2023-04-20T08:24:10.508Z,55.43
2023-04-20T08:26:37.333Z,55.41
2023-04-20T08:29:04.448Z,54.28
2023-04-20T08:31:31.599Z,55.21
2023-04-20T08:33:58.292Z,56.01
2023-04-20T08:36:24.782Z,54.87
2023-04-20T08:38:55.010Z,54.94
2023-04-20T08:41:22.472Z,55.00
2023-04-20T08:43:50.383Z,53.87
2023-04-20T08:46:17.589Z,53.96
2023-04-20T08:48:46.647Z,54.39
2023-04-20T08:51:15.492Z,54.33
2023-04-20T08:53:41.908Z,54.17
2023-04-20T08:56:08.290Z,55.62
2023-04-20T08:58:34.694Z,54.64
2023-04-20T09:01:01.187Z,54.57
2023-04-20T09:03:36.070Z,54.08
2023-04-20T09:06:03.107Z,54.77
2023-04-20T09:08:43.022Z,55.12
2023-04-20T09:11:22.923Z,54.74
2023-04-20T09:14:03.231Z,54.79
2023-04-20T09:16:29.881Z,54.46
2023-04-20T09:18:56.994Z,54.93
2023-04-20T09:21:25.268Z,53.93
2023-04-20T09:24:00.417Z,54.32
2023-04-20T09:26:27.629Z,53.20
2023-04-20T09:28:54.134Z,53.26
2023-04-20T09:31:23.586Z,54.28
2023-04-20T09:34:00.774Z,54.00
2023-04-20T09:36:37.329Z,54.05
2023-04-20T09:39:15.567Z,53.54
2023-04-20T09:41:43.067Z,53.47
2023-04-20T09:44:10.901Z,52.42
2023-04-20T09:46:39.638Z,53.11
2023-04-20T09:49:07.767Z,52.67
2023-04-20T09:51:36.297Z,53.46
2023-04-20T09:54:05.589Z,54.07
2023-04-20T09:56:33.113Z,55.18
2023-04-20T09:59:00.912Z,55.08
2023-04-20T10:01:31.192Z,55.87
2023-04-20T10:04:00.124Z,54.53
2023-04-20T10:06:34.467Z,54.67
2023-04-20T10:09:02.946Z,56.15
2023-04-20T10:11:53.285Z,57.03
2023-04-20T10:14:23.249Z,59.37
2023-04-20T10:17:29.655Z,59.63
2023-04-20T10:19:56.136Z,61.23
2023-04-20T10:22:35.421Z,60.55
2023-04-20T10:25:14.654Z,61.25
2023-04-20T10:27:55.937Z,61.36
2023-04-20T10:30:23.643Z,61.91
2023-04-20T10:32:50.547Z,60.95
2023-04-20T10:35:17.166Z,60.84
2023-04-20T10:37:51.739Z,61.13
2023-04-20T10:40:29.087Z,60.13
2023-04-20T10:42:55.445Z,59.34
2023-04-20T10:45:33.440Z,58.70
2023-04-20T10:48:07.197Z,59.16
2023-04-20T10:50:33.807Z,57.16
2023-04-20T10:53:02.662Z,55.67
2023-04-20T10:55:31.487Z,56.08
2023-04-20T10:57:57.831Z,53.03
2023-04-20T11:00:27.282Z,50.52
2023-04-20T11:02:58.638Z,52.42
2023-04-20T11:05:27.337Z,52.95
2023-04-20T11:07:57.788Z,51.75
2023-04-20T11:10:37.102Z,53.35
2023-04-20T11:13:03.573Z,54.07
2023-04-20T11:15:35.982Z,53.20
2023-04-20T11:18:12.166Z,53.69
2023-04-20T11:20:59.129Z,53.95
2023-04-20T11:23:28.607Z,53.04
2023-04-20T11:25:57.100Z,54.27
2023-04-20T11:28:24.311Z,54.66
2023-04-20T11:30:51.104Z,55.43
2023-04-20T11:33:28.252Z,56.50
2023-04-20T11:35:56.150Z,59.14
2023-04-20T11:38:33.393Z,62.48
2023-04-20T11:41:04.524Z,65.29
2023-04-20T11:43:32.475Z,64.88
2023-04-20T11:45:59.860Z,67.85
2023-04-20T11:48:27.488Z,65.04
2023-04-20T11:50:53.919Z,64.63
2023-04-20T11:53:20.968Z,63.26
2023-04-20T11:55:47.485Z,58.22
2023-04-20T11:58:13.855Z,55.35
2023-04-20T12:00:40.316Z,53.56
2023-04-20T12:03:07.146Z,54.77
2023-04-20T12:05:33.998Z,55.25
2023-04-20T12:08:00.647Z,57.08
2023-04-20T12:10:26.997Z,58.42
2023-04-20T12:12:53.684Z,59.63
2023-04-20T12:15:20.053Z,59.67
2023-04-20T12:17:46.537Z,60.72
2023-04-20T12:20:13.702Z,60.69
2023-04-20T12:22:47.170Z,61.33
2023-04-20T12:25:14.003Z,60.48
2023-04-20T12:27:40.478Z,61.02
2023-04-20T12:30:09.222Z,61.38
2023-04-20T12:32:35.657Z,62.22
2023-04-20T12:35:02.623Z,59.43
2023-04-20T12:37:28.969Z,59.08
2023-04-20T12:39:55.304Z,59.41
2023-04-20T12:42:21.729Z,57.66
2023-04-20T12:44:48.168Z,50.30
2023-04-20T12:47:14.773Z,53.64
2023-04-20T12:49:43.320Z,47.70
2023-04-20T12:52:09.792Z,50.38
2023-04-20T12:54:36.430Z,48.14
2023-04-20T12:57:03.508Z,50.99
2023-04-20T12:59:30.383Z,52.25
2023-04-20T13:01:56.859Z,51.28
2023-04-20T13:04:24.007Z,52.74
2023-04-20T13:06:50.992Z,54.03
2023-04-20T13:09:17.403Z,54.15
2023-04-20T13:11:43.840Z,55.32
2023-04-20T13:14:10.221Z,54.13
2023-04-20T13:16:37.514Z,53.75
2023-04-20T13:19:04.045Z,54.29
2023-04-20T13:21:30.377Z,54.38
2023-04-20T13:23:57.024Z,55.55
2023-04-20T13:26:23.722Z,55.17
2023-04-20T13:28:50.107Z,54.61
2023-04-20T13:31:16.571Z,50.43
2023-04-20T13:33:43.328Z,48.85
2023-04-20T13:36:12.083Z,46.21
2023-04-20T13:38:38.654Z,48.04
2023-04-20T13:41:05.328Z,48.86
2023-04-20T13:43:31.675Z,46.79
2023-04-20T13:45:58.115Z,44.99
2023-04-20T13:48:24.575Z,45.33
2023-04-20T13:50:51.164Z,44.43
2023-04-20T13:53:17.548Z,42.52
2023-04-20T13:55:43.886Z,42.90
2023-04-20T13:58:10.260Z,44.41
2023-04-20T14:00:36.650Z,42.39
2023-04-20T14:03:03.181Z,40.31
2023-04-20T14:05:29.722Z,41.83
2023-04-20T14:07:58.409Z,40.70
2023-04-20T14:10:24.767Z,40.20
2023-04-20T14:12:51.456Z,40.82
2023-04-20T14:15:17.963Z,41.02
2023-04-20T14:17:44.368Z,40.75
2023-04-20T14:20:11.485Z,38.70
2023-04-20T14:22:37.926Z,39.18
2023-04-20T14:25:04.946Z,39.83
2023-04-20T14:27:31.465Z,40.32
2023-04-20T14:29:58.232Z,41.40
2023-04-20T14:32:24.732Z,39.41
2023-04-20T14:34:51.267Z,37.86
2023-04-20T14:37:17.609Z,38.32
2023-04-20T14:39:44.108Z,38.18
2023-04-20T14:42:10.475Z,37.06
2023-04-20T14:44:36.891Z,37.80
2023-04-20T14:47:03.373Z,38.18
2023-04-20T14:49:30.208Z,38.87
2023-04-20T14:51:56.582Z,39.98
2023-04-20T14:54:23.002Z,40.01
2023-04-20T14:56:49.495Z,39.87
2023-04-20T14:59:15.974Z,38.58
2023-04-20T15:01:51.564Z,37.52
2023-04-20T15:04:25.656Z,35.99
2023-04-20T15:06:52.474Z,37.51
2023-04-20T15:09:18.818Z,38.61
2023-04-20T15:11:45.156Z,36.28
2023-04-20T15:14:11.521Z,37.13
2023-04-20T15:16:37.937Z,36.94
2023-04-20T15:19:04.818Z,36.83
2023-04-20T15:21:32.175Z,37.64
2023-04-20T15:23:58.725Z,37.36
2023-04-20T15:26:25.174Z,38.08
2023-04-20T15:28:51.842Z,36.73
2023-04-20T15:31:18.892Z,37.64
2023-04-20T15:33:47.828Z,37.11
2023-04-20T15:36:17.598Z,37.31
2023-04-20T15:38:43.963Z,36.05
2023-04-20T15:41:10.860Z,35.93
2023-04-20T15:43:37.464Z,34.95
2023-04-20T15:46:03.937Z,37.58
2023-04-20T15:48:30.486Z,37.06
2023-04-20T15:50:56.868Z,37.11
2023-04-20T15:53:24.040Z,38.16
2023-04-20T15:55:50.482Z,38.44
2023-04-20T15:58:16.853Z,39.05
2023-04-20T16:00:43.252Z,38.85
2023-04-20T16:03:09.928Z,37.97
2023-04-20T16:05:37.391Z,37.25
2023-04-20T16:08:05.283Z,37.75
2023-04-20T16:10:31.923Z,38.01
2023-04-20T16:12:58.299Z,36.63
2023-04-20T16:15:24.920Z,36.60
2023-04-20T16:17:51.304Z,35.47
2023-04-20T16:20:17.808Z,35.69
2023-04-20T16:22:44.183Z,34.73
2023-04-20T16:25:12.323Z,35.84
2023-04-20T16:27:39.104Z,35.41
2023-04-20T16:30:06.265Z,36.80
2023-04-20T16:32:34.392Z,37.06
2023-04-20T16:35:00.824Z,36.94
2023-04-20T16:37:27.240Z,37.38
2023-04-20T16:39:53.594Z,37.14
2023-04-20T16:42:19.988Z,38.75
2023-04-20T16:44:46.394Z,38.04
2023-04-20T16:47:12.781Z,37.97
2023-04-20T16:49:39.176Z,39.28
2023-04-20T16:52:05.584Z,38.54
2023-04-20T16:54:32.006Z,38.51
2023-04-20T16:56:58.366Z,38.35
2023-04-20T16:59:24.738Z,37.82
2023-04-20T17:01:51.231Z,38.60
2023-04-20T17:04:18.390Z,38.30
2023-04-20T17:06:46.501Z,37.58
2023-04-20T17:09:12.860Z,38.50
2023-04-20T17:11:39.733Z,40.12
2023-04-20T17:14:07.050Z,39.92
2023-04-20T17:16:33.588Z,39.60
2023-04-20T17:19:00.547Z,39.44
2023-04-20T17:21:27.594Z,39.23
2023-04-20T17:23:53.972Z,39.40
2023-04-20T17:26:20.686Z,39.29
2023-04-20T17:28:47.576Z,38.33
2023-04-20T17:31:14.046Z,38.81
2023-04-20T17:33:40.547Z,38.68
2023-04-20T17:36:07.012Z,38.09
2023-04-20T17:38:38.199Z,38.75
2023-04-20T17:41:04.921Z,38.33
2023-04-20T17:43:31.504Z,38.45
2023-04-20T17:45:58.616Z,38.56
2023-04-20T17:48:25.331Z,37.88
2023-04-20T17:50:51.814Z,38.63
2023-04-20T17:53:18.235Z,38.78
2023-04-20T17:55:44.579Z,38.27
2023-04-20T17:58:10.980Z,38.26
2023-04-20T18:00:37.406Z,38.69
2023-04-20T18:03:04.022Z,39.15
2023-04-20T18:05:30.648Z,38.20
2023-04-20T18:07:57.626Z,39.32
2023-04-20T18:10:25.523Z,39.03
2023-04-20T18:12:52.183Z,39.42
2023-04-20T18:15:18.533Z,39.56
2023-04-20T18:17:45.152Z,39.63
2023-04-20T18:20:12.192Z,39.19
2023-04-20T18:22:39.350Z,39.54
2023-04-20T18:25:08.620Z,39.81
2023-04-20T18:27:35.372Z,39.96
2023-04-20T18:30:02.649Z,40.25
2023-04-20T18:32:30.755Z,39.79
2023-04-20T18:34:57.241Z,40.52
2023-04-20T18:37:23.647Z,40.53
2023-04-20T18:39:50.640Z,42.00
2023-04-20T18:42:17.244Z,44.14
2023-04-20T18:44:43.733Z,45.53
2023-04-20T18:47:10.274Z,45.51
2023-04-20T18:49:36.871Z,46.23
2023-04-20T18:52:09.838Z,46.95
2023-04-20T18:54:38.269Z,46.95
2023-04-20T18:57:05.653Z,47.65
2023-04-20T18:59:32.084Z,47.78
2023-04-20T19:01:58.855Z,48.89
2023-04-20T19:04:25.342Z,48.39
2023-04-20T19:06:51.747Z,49.24
2023-04-20T19:09:18.794Z,49.85
2023-04-20T19:11:45.219Z,49.77
2023-04-20T19:14:12.141Z,50.31
2023-04-20T19:16:38.730Z,50.31
2023-04-20T19:19:05.640Z,50.60
2023-04-20T19:21:32.732Z,50.70
2023-04-20T19:23:59.401Z,50.36
2023-04-20T19:26:26.147Z,49.92
2023-04-20T19:28:53.458Z,49.21
2023-04-20T19:31:20.443Z,49.60
2023-04-20T19:33:47.218Z,49.70
2023-04-20T19:36:13.909Z,48.99
2023-04-20T19:38:40.551Z,50.14
2023-04-20T19:41:07.011Z,49.48
2023-04-20T19:43:34.407Z,48.98
2023-04-20T19:46:00.836Z,49.34
2023-04-20T19:48:27.294Z,49.71
2023-04-20T19:50:56.517Z,49.61
2023-04-20T19:53:23.856Z,49.58
2023-04-20T19:55:50.207Z,49.34
2023-04-20T19:58:16.526Z,49.57
2023-04-20T20:00:42.926Z,50.16
2023-04-20T20:03:09.399Z,50.45
2023-04-20T20:05:35.781Z,49.75
2023-04-20T20:08:03.232Z,50.27
2023-04-20T20:10:29.886Z,50.83
2023-04-20T20:12:56.236Z,50.83
2023-04-20T20:15:22.554Z,51.72
2023-04-20T20:17:48.965Z,52.41
2023-04-20T20:20:15.445Z,51.84
2023-04-20T20:22:48.007Z,52.15
2023-04-20T20:25:15.373Z,52.77
2023-04-20T20:27:41.786Z,54.10
2023-04-20T20:30:08.876Z,53.66
2023-04-20T20:32:35.246Z,54.01
2023-04-20T20:35:01.625Z,55.36
2023-04-20T20:37:34.403Z,57.04
2023-04-20T20:40:07.232Z,56.94
2023-04-20T20:42:34.086Z,57.37
2023-04-20T20:45:01.034Z,58.02
2023-04-20T20:47:27.473Z,58.41
2023-04-20T20:49:53.834Z,58.33
2023-04-20T20:52:21.002Z,59.14
2023-04-20T20:54:47.335Z,59.98
2023-04-20T20:57:13.718Z,61.36
2023-04-20T20:59:40.165Z,61.58
2023-04-20T21:02:06.625Z,61.81
2023-04-20T21:04:33.222Z,62.17
2023-04-20T21:06:59.662Z,63.90
2023-04-20T21:09:26.192Z,64.98
2023-04-20T21:11:52.537Z,65.70
2023-04-20T21:14:18.876Z,65.94
2023-04-20T21:16:45.277Z,65.83
2023-04-20T21:19:11.815Z,67.96
2023-04-20T21:21:38.155Z,67.85
2023-04-20T21:24:04.614Z,67.38
2023-04-20T21:26:35.620Z,68.74
2023-04-20T21:29:03.394Z,68.28
2023-04-20T21:31:30.246Z,69.50
2023-04-20T21:33:57.554Z,69.54
2023-04-20T21:36:23.984Z,69.98
2023-04-20T21:38:50.422Z,71.41
2023-04-20T21:41:16.750Z,71.54
2023-04-20T21:43:43.645Z,70.95
2023-04-20T21:46:14.450Z,70.92
2023-04-20T21:48:41.158Z,69.97
2023-04-20T21:51:07.543Z,70.84
2023-04-20T21:53:34.418Z,70.46
2023-04-20T21:56:00.773Z,69.87
2023-04-20T21:58:27.089Z,69.79
2023-04-20T22:00:53.493Z,71.30
2023-04-20T22:03:20.058Z,70.79
2023-04-20T22:05:46.977Z,71.41
2023-04-20T22:08:15.074Z,71.03
2023-04-20T22:10:41.896Z,71.42
2023-04-20T22:13:08.238Z,72.20
2023-04-20T22:15:34.620Z,72.45
2023-04-20T22:18:01.085Z,72.29
2023-04-20T22:20:27.783Z,71.91
2023-04-20T22:22:54.101Z,71.56
2023-04-20T22:25:20.698Z,72.44
2023-04-20T22:27:47.085Z,72.38
2023-04-20T22:30:13.618Z,72.38
2023-04-20T22:32:40.916Z,73.18
2023-04-20T22:35:07.963Z,72.24
2023-04-20T22:37:35.100Z,72.25
2023-04-20T22:40:01.626Z,74.36
2023-04-20T22:42:28.112Z,74.78
2023-04-20T22:44:54.592Z,74.85
2023-04-20T22:47:21.090Z,74.58
2023-04-20T22:49:48.901Z,75.40
2023-04-20T22:52:15.333Z,75.11
2023-04-20T22:54:41.858Z,74.80
2023-04-20T22:57:08.181Z,74.84
2023-04-20T22:59:34.553Z,76.80
2023-04-20T23:02:01.040Z,77.44
2023-04-20T23:04:27.479Z,77.27
2023-04-20T23:06:58.115Z,76.73
2023-04-20T23:09:24.582Z,76.55
2023-04-20T23:11:53.655Z,77.44
2023-04-20T23:14:23.714Z,77.08
2023-04-20T23:16:50.334Z,77.06
2023-04-20T23:19:17.234Z,76.93
2023-04-20T23:21:43.823Z,77.66
2023-04-20T23:24:10.210Z,77.65
2023-04-20T23:26:36.589Z,78.06
2023-04-20T23:29:02.959Z,77.50
2023-04-20T23:31:29.337Z,79.02
2023-04-20T23:33:55.802Z,78.88
2023-04-20T23:36:22.204Z,79.21
2023-04-20T23:38:48.832Z,79.42
2023-04-20T23:41:15.527Z,79.96
2023-04-20T23:43:42.476Z,80.54
2023-04-20T23:46:09.097Z,81.76
2023-04-20T23:48:35.553Z,82.53
2023-04-20T23:51:02.381Z,82.98
2023-04-20T23:53:28.981Z,83.07
2023-04-20T23:55:55.635Z,83.87
2023-04-20T23:58:26.698Z,84.45
